createdAt,value
2018-11-07T00:00:20.792Z,12.02
2018-11-07T00:02:48.831Z,11.93
2018-11-07T00:05:18.083Z,11.93
2018-11-07T00:07:46.282Z,11.97
2018-11-07T00:10:14.458Z,11.71
2018-11-07T00:12:42.581Z,11.67
2018-11-07T00:15:13.130Z,11.86
2018-11-07T00:17:41.211Z,11.67
2018-11-07T00:20:10.185Z,11.59
2018-11-07T00:22:38.348Z,11.48
2018-11-07T00:25:07.350Z,11.50
2018-11-07T00:27:35.317Z,11.67
2018-11-07T00:30:04.053Z,11.54
2018-11-07T00:32:32.030Z,11.58
2018-11-07T00:35:00.959Z,11.55
2018-11-07T00:37:29.171Z,11.43
2018-11-07T00:39:57.162Z,11.48
2018-11-07T00:42:25.148Z,11.43
2018-11-07T00:44:53.158Z,11.58
2018-11-07T00:47:21.109Z,11.45
2018-11-07T00:49:49.134Z,11.53
2018-11-07T00:52:17.260Z,11.39
2018-11-07T00:54:45.394Z,11.49
2018-11-07T00:57:13.310Z,11.37
2018-11-07T00:59:41.340Z,11.33
2018-11-07T01:02:09.358Z,11.37
2018-11-07T01:04:37.545Z,11.23
2018-11-07T01:07:06.307Z,11.27
2018-11-07T01:09:34.606Z,11.20
2018-11-07T01:12:02.613Z,11.36
2018-11-07T01:14:30.571Z,11.33
2018-11-07T01:16:58.450Z,11.26
2018-11-07T01:19:26.417Z,11.40
2018-11-07T01:22:00.864Z,11.51
2018-11-07T01:24:28.785Z,11.47
2018-11-07T01:26:56.749Z,11.58
2018-11-07T01:29:24.818Z,11.48
2018-11-07T01:31:52.875Z,11.55
2018-11-07T01:34:20.853Z,11.57
2018-11-07T01:36:48.924Z,11.50
2018-11-07T01:39:16.774Z,11.58
2018-11-07T01:41:44.773Z,11.47
2018-11-07T01:44:12.754Z,11.46
2018-11-07T01:46:40.716Z,11.53
2018-11-07T01:49:08.897Z,11.41
2018-11-07T01:51:37.071Z,11.49
2018-11-07T01:54:05.519Z,11.26
2018-11-07T01:56:33.825Z,11.31
2018-11-07T01:59:01.978Z,11.43
2018-11-07T02:01:29.961Z,11.30
2018-11-07T02:03:58.094Z,11.19
2018-11-07T02:06:26.058Z,11.21
2018-11-07T02:08:54.066Z,11.31
2018-11-07T02:11:22.024Z,11.44
2018-11-07T02:13:50.092Z,11.43
2018-11-07T02:16:18.006Z,11.30
2018-11-07T02:18:45.909Z,11.33
2018-11-07T02:21:13.855Z,11.34
2018-11-07T02:23:41.831Z,11.14
2018-11-07T02:26:09.877Z,11.14
2018-11-07T02:28:37.712Z,11.09
2018-11-07T02:31:05.856Z,11.21
2018-11-07T02:33:33.898Z,10.99
2018-11-07T02:36:01.957Z,10.96
2018-11-07T02:38:29.925Z,11.03
2018-11-07T02:40:57.847Z,11.09
2018-11-07T02:43:25.853Z,11.05
2018-11-07T02:45:53.985Z,11.14
2018-11-07T02:48:22.043Z,11.06
2018-11-07T02:50:50.081Z,11.18
2018-11-07T02:53:18.032Z,11.21
2018-11-07T02:55:46.025Z,11.44
2018-11-07T02:58:13.948Z,11.17
2018-11-07T03:00:41.870Z,11.26
2018-11-07T03:03:09.755Z,11.29
2018-11-07T03:05:37.743Z,11.29
2018-11-07T03:08:05.660Z,11.51
2018-11-07T03:10:33.659Z,11.13
2018-11-07T03:13:01.617Z,10.90
2018-11-07T03:15:29.613Z,10.94
2018-11-07T03:17:57.483Z,10.85
2018-11-07T03:20:25.569Z,10.84
2018-11-07T03:22:53.465Z,10.86
2018-11-07T03:25:21.405Z,10.83
2018-11-07T03:27:49.473Z,10.92
2018-11-07T03:30:17.443Z,10.90
2018-11-07T03:32:45.350Z,10.86
2018-11-07T03:35:18.651Z,10.89
2018-11-07T03:37:46.553Z,10.86
2018-11-07T03:40:14.488Z,10.87
2018-11-07T03:42:42.571Z,10.85
2018-11-07T03:45:10.533Z,10.72
2018-11-07T03:47:38.535Z,10.76
2018-11-07T03:50:06.750Z,10.70
2018-11-07T03:52:35.460Z,10.67
2018-11-07T03:55:03.511Z,10.66
2018-11-07T03:57:31.530Z,10.61
2018-11-07T03:59:59.519Z,10.56
2018-11-07T04:02:27.463Z,10.55
2018-11-07T04:04:55.370Z,10.56
2018-11-07T04:07:23.321Z,10.57
2018-11-07T04:09:51.307Z,10.54
2018-11-07T04:12:19.256Z,10.59
2018-11-07T04:14:47.467Z,10.68
2018-11-07T04:17:15.405Z,10.78
2018-11-07T04:19:43.379Z,10.72
2018-11-07T04:22:11.289Z,10.77
2018-11-07T04:24:39.272Z,10.82
2018-11-07T04:27:07.219Z,11.14
2018-11-07T04:29:35.098Z,11.28
2018-11-07T04:32:03.059Z,11.37
2018-11-07T04:34:31.006Z,11.27
2018-11-07T04:36:59.098Z,10.92
2018-11-07T04:39:27.109Z,10.79
2018-11-07T04:41:55.256Z,10.97
2018-11-07T04:44:23.318Z,10.77
2018-11-07T04:46:51.435Z,10.69
2018-11-07T04:49:19.450Z,10.60
2018-11-07T04:51:47.733Z,10.56
2018-11-07T04:54:15.801Z,10.48
2018-11-07T04:56:43.778Z,10.34
2018-11-07T04:59:11.715Z,10.31
2018-11-07T05:01:39.633Z,10.30
2018-11-07T05:04:07.842Z,10.35
2018-11-07T05:06:36.060Z,10.14
2018-11-07T05:09:04.437Z,9.67
2018-11-07T05:11:33.001Z,10.02
2018-11-07T05:14:01.162Z,10.01
2018-11-07T05:16:29.081Z,10.03
2018-11-07T05:18:57.071Z,10.17
2018-11-07T05:21:25.147Z,10.22
2018-11-07T05:23:54.234Z,9.83
2018-11-07T05:26:22.428Z,9.87
2018-11-07T05:28:50.470Z,10.13
2018-11-07T05:31:18.564Z,9.99
2018-11-07T05:33:46.512Z,10.11
2018-11-07T05:36:15.542Z,10.13
2018-11-07T05:38:43.539Z,10.18
2018-11-07T05:41:12.764Z,10.25
2018-11-07T05:43:40.787Z,10.26
2018-11-07T05:46:08.818Z,10.20
2018-11-07T05:48:36.765Z,10.16
2018-11-07T05:51:04.943Z,10.01
2018-11-07T05:53:32.823Z,10.10
2018-11-07T05:56:00.779Z,9.90
2018-11-07T05:58:28.778Z,9.67
2018-11-07T06:00:56.813Z,9.29
2018-11-07T06:03:24.808Z,9.48
2018-11-07T06:05:52.672Z,9.60
2018-11-07T06:08:20.562Z,9.62
2018-11-07T06:10:48.472Z,10.14
2018-11-07T06:13:16.652Z,9.80
2018-11-07T06:15:45.124Z,9.84
2018-11-07T06:18:13.148Z,9.48
2018-11-07T06:20:41.103Z,9.26
2018-11-07T06:23:09.046Z,9.22
2018-11-07T06:25:37.091Z,9.49
2018-11-07T06:28:05.118Z,9.58
2018-11-07T06:30:33.263Z,9.41
2018-11-07T06:33:08.010Z,9.44
2018-11-07T06:35:36.007Z,9.73
2018-11-07T06:38:04.181Z,10.26
2018-11-07T06:40:32.341Z,10.32
2018-11-07T06:43:00.393Z,10.14
2018-11-07T06:45:28.477Z,10.03
2018-11-07T06:47:56.434Z,10.25
2018-11-07T06:50:25.219Z,10.37
2018-11-07T06:52:53.325Z,10.41
2018-11-07T06:55:21.306Z,10.62
2018-11-07T06:57:49.282Z,10.72
2018-11-07T07:00:17.794Z,10.87
2018-11-07T07:02:47.014Z,10.92
2018-11-07T07:05:15.030Z,11.03
2018-11-07T07:07:43.841Z,11.14
2018-11-07T07:10:14.305Z,11.01
2018-11-07T07:12:42.734Z,11.21
2018-11-07T07:15:13.125Z,11.43
2018-11-07T07:17:41.821Z,11.73
2018-11-07T07:20:12.800Z,11.80
2018-11-07T07:22:41.329Z,11.99
2018-11-07T07:25:10.910Z,12.06
2018-11-07T07:27:39.205Z,12.10
2018-11-07T07:30:10.326Z,12.33
2018-11-07T07:32:38.339Z,12.23
2018-11-07T07:35:07.076Z,12.27
2018-11-07T07:37:35.112Z,12.41
2018-11-07T07:40:03.548Z,12.24
2018-11-07T07:42:31.564Z,12.28
2018-11-07T07:45:03.478Z,12.39
2018-11-07T07:47:31.809Z,12.59
2018-11-07T07:49:59.857Z,12.64
2018-11-07T07:52:29.413Z,12.66
2018-11-07T07:54:58.603Z,12.50
2018-11-07T07:57:27.014Z,12.55
2018-11-07T07:59:55.022Z,12.57
2018-11-07T08:02:23.041Z,12.71
2018-11-07T08:04:50.986Z,12.74
2018-11-07T08:07:18.990Z,12.81
2018-11-07T08:09:47.229Z,12.82
2018-11-07T08:12:15.181Z,12.76
2018-11-07T08:14:49.882Z,13.24
2018-11-07T08:17:19.049Z,12.98
2018-11-07T08:19:47.067Z,12.87
2018-11-07T08:22:14.958Z,12.87
2018-11-07T08:24:43.018Z,13.04
2018-11-07T08:27:11.161Z,13.25
2018-11-07T08:29:39.290Z,13.43
2018-11-07T08:32:07.381Z,13.04
2018-11-07T08:34:35.368Z,13.06
2018-11-07T08:37:03.459Z,12.90
2018-11-07T08:39:31.578Z,13.06
2018-11-07T08:41:59.577Z,12.98
2018-11-07T08:44:27.600Z,13.12
2018-11-07T08:46:56.202Z,13.05
2018-11-07T08:49:24.349Z,13.11
2018-11-07T08:51:52.446Z,13.14
2018-11-07T08:54:20.443Z,12.82
2018-11-07T08:56:48.442Z,12.90
2018-11-07T08:59:17.758Z,13.05
2018-11-07T09:01:46.012Z,12.99
2018-11-07T09:04:13.980Z,13.06
2018-11-07T09:06:42.230Z,13.29
2018-11-07T09:09:12.044Z,13.05
2018-11-07T09:11:41.209Z,13.22
2018-11-07T09:14:09.381Z,13.17
2018-11-07T09:16:37.787Z,13.23
2018-11-07T09:19:05.833Z,13.44
2018-11-07T09:21:34.406Z,13.74
2018-11-07T09:24:05.501Z,13.99
2018-11-07T09:26:34.059Z,14.09
2018-11-07T09:29:02.772Z,14.64
2018-11-07T09:31:31.268Z,14.56
2018-11-07T09:33:59.380Z,14.50
2018-11-07T09:36:27.595Z,14.55
2018-11-07T09:38:55.551Z,14.96
2018-11-07T09:41:23.790Z,14.98
2018-11-07T09:43:51.999Z,14.20
2018-11-07T09:46:20.937Z,13.53
2018-11-07T09:48:49.009Z,13.21
2018-11-07T09:51:17.113Z,13.26
2018-11-07T09:53:45.204Z,13.51
2018-11-07T09:56:13.082Z,13.90
2018-11-07T09:58:41.098Z,13.58
2018-11-07T10:01:09.140Z,13.54
2018-11-07T10:03:37.465Z,13.63
2018-11-07T10:06:05.940Z,13.64
2018-11-07T10:08:33.977Z,14.19
2018-11-07T10:11:02.079Z,13.80
2018-11-07T10:13:29.997Z,14.16
2018-11-07T10:15:58.052Z,14.01
2018-11-07T10:18:26.684Z,14.56
2018-11-07T10:20:54.693Z,15.13
2018-11-07T10:23:22.589Z,15.65
2018-11-07T10:25:55.146Z,15.52
2018-11-07T10:28:26.165Z,15.85
2018-11-07T10:30:54.252Z,15.39
2018-11-07T10:33:23.177Z,14.64
2018-11-07T10:35:51.923Z,14.88
2018-11-07T10:38:20.266Z,14.31
2018-11-07T10:40:48.354Z,14.74
2018-11-07T10:43:16.318Z,15.12
2018-11-07T10:45:44.415Z,14.54
2018-11-07T10:48:12.491Z,14.43
2018-11-07T10:50:40.577Z,14.75
2018-11-07T10:53:08.564Z,14.57
2018-11-07T10:55:36.588Z,15.02
2018-11-07T10:58:04.761Z,14.59
2018-11-07T11:00:38.159Z,14.28
2018-11-07T11:03:11.706Z,14.36
2018-11-07T11:05:40.298Z,14.53
2018-11-07T11:08:09.846Z,14.96
2018-11-07T11:10:38.064Z,15.06
2018-11-07T11:13:06.287Z,14.99
2018-11-07T11:15:34.266Z,15.37
2018-11-07T11:18:02.213Z,15.10
2018-11-07T11:20:30.181Z,15.02
2018-11-07T11:22:58.384Z,15.05
2018-11-07T11:25:26.478Z,15.29
2018-11-07T11:27:54.604Z,15.10
2018-11-07T11:30:23.042Z,15.35
2018-11-07T11:32:51.126Z,15.86
2018-11-07T11:35:19.202Z,16.38
2018-11-07T11:37:47.353Z,15.94
2018-11-07T11:40:16.606Z,15.00
2018-11-07T11:42:46.433Z,14.80
2018-11-07T11:45:15.571Z,15.16
2018-11-07T11:47:43.921Z,15.34
2018-11-07T11:50:14.696Z,15.36
2018-11-07T11:52:44.437Z,15.06
2018-11-07T11:55:12.635Z,14.74
2018-11-07T11:57:43.601Z,15.04
2018-11-07T12:00:14.968Z,15.45
2018-11-07T12:02:43.426Z,15.07
2018-11-07T12:05:15.047Z,15.13
2018-11-07T12:07:43.177Z,15.17
2018-11-07T12:10:16.794Z,15.77
2018-11-07T12:12:48.992Z,15.20
2018-11-07T12:15:18.076Z,15.59
2018-11-07T12:17:46.572Z,15.76
2018-11-07T12:20:21.346Z,15.77
2018-11-07T12:22:50.222Z,15.43
2018-11-07T12:25:19.392Z,15.04
2018-11-07T12:27:49.081Z,15.10
2018-11-07T12:30:18.436Z,15.33
2018-11-07T12:32:48.996Z,15.50
2018-11-07T12:35:18.009Z,15.53
2018-11-07T12:37:45.989Z,16.15
2018-11-07T12:40:14.453Z,15.23
2018-11-07T12:42:42.470Z,15.34
2018-11-07T12:45:11.857Z,14.88
2018-11-07T12:47:40.066Z,15.26
2018-11-07T12:50:12.522Z,15.67
2018-11-07T12:52:41.011Z,15.01
2018-11-07T12:55:10.407Z,15.23
2018-11-07T12:57:39.556Z,15.27
2018-11-07T13:00:13.638Z,15.21
2018-11-07T13:02:41.698Z,15.41
2018-11-07T13:05:11.419Z,15.95
2018-11-07T13:07:39.719Z,15.78
2018-11-07T13:10:11.425Z,15.93
2018-11-07T13:12:39.689Z,16.06
2018-11-07T13:15:08.795Z,15.62
2018-11-07T13:17:37.081Z,15.52
2018-11-07T13:20:07.848Z,15.37
2018-11-07T13:22:35.935Z,15.39
2018-11-07T13:25:04.217Z,15.60
2018-11-07T13:27:32.190Z,15.26
2018-11-07T13:30:00.295Z,15.11
2018-11-07T13:32:28.398Z,15.20
2018-11-07T13:34:56.999Z,15.24
2018-11-07T13:37:25.289Z,15.42
2018-11-07T13:39:53.166Z,15.56
2018-11-07T13:42:21.192Z,15.49
2018-11-07T13:44:49.337Z,15.28
2018-11-07T13:47:17.480Z,15.33
2018-11-07T13:49:45.927Z,15.06
2018-11-07T13:52:13.978Z,15.15
2018-11-07T13:54:41.990Z,15.23
2018-11-07T13:57:10.155Z,15.50
2018-11-07T13:59:38.222Z,15.36
2018-11-07T14:02:06.867Z,15.45
2018-11-07T14:04:34.915Z,15.31
2018-11-07T14:07:02.867Z,15.30
2018-11-07T14:09:31.039Z,15.24
2018-11-07T14:11:59.142Z,15.50
2018-11-07T14:14:27.258Z,15.12
2018-11-07T14:16:55.342Z,14.97
2018-11-07T14:19:23.437Z,14.78
2018-11-07T14:21:52.350Z,14.78
2018-11-07T14:24:20.371Z,14.75
2018-11-07T14:26:48.746Z,15.00
2018-11-07T14:29:17.067Z,14.66
2018-11-07T14:31:45.263Z,14.56
2018-11-07T14:34:13.792Z,14.75
2018-11-07T14:36:42.015Z,14.54
2018-11-07T14:39:10.248Z,14.41
2018-11-07T14:41:39.328Z,14.27
2018-11-07T14:44:07.498Z,14.26
2018-11-07T14:46:35.951Z,14.29
2018-11-07T14:49:04.134Z,14.39
2018-11-07T14:51:34.286Z,14.15
2018-11-07T14:54:02.383Z,14.29
2018-11-07T14:56:30.350Z,14.19
2018-11-07T14:58:59.291Z,14.16
2018-11-07T15:01:27.819Z,14.12
2018-11-07T15:03:55.789Z,14.11
2018-11-07T15:06:23.802Z,13.93
2018-11-07T15:08:51.800Z,13.91
2018-11-07T15:11:19.861Z,13.78
2018-11-07T15:13:48.889Z,13.53
2018-11-07T15:16:16.962Z,13.46
2018-11-07T15:18:45.142Z,13.51
2018-11-07T15:21:13.284Z,13.51
2018-11-07T15:23:41.210Z,13.43
2018-11-07T15:26:09.174Z,13.32
2018-11-07T15:28:37.213Z,13.07
2018-11-07T15:31:05.411Z,12.90
2018-11-07T15:33:33.380Z,12.58
2018-11-07T15:36:01.702Z,12.59
2018-11-07T15:38:29.778Z,12.51
2018-11-07T15:40:57.711Z,12.32
2018-11-07T15:43:25.936Z,12.31
2018-11-07T15:45:53.878Z,12.33
2018-11-07T15:48:21.840Z,12.21
2018-11-07T15:50:55.149Z,12.14
2018-11-07T15:53:23.060Z,12.28
2018-11-07T15:55:51.917Z,11.93
2018-11-07T15:58:19.965Z,11.81
2018-11-07T16:00:48.824Z,11.72
2018-11-07T16:03:22.442Z,11.72
2018-11-07T16:05:50.489Z,11.62
2018-11-07T16:08:18.451Z,11.65
2018-11-07T16:10:46.522Z,11.70
2018-11-07T16:13:14.419Z,11.56
2018-11-07T16:15:42.649Z,11.52
2018-11-07T16:18:10.603Z,11.54
2018-11-07T16:20:38.647Z,11.38
2018-11-07T16:23:06.636Z,11.28
2018-11-07T16:25:34.790Z,11.24
2018-11-07T16:28:02.864Z,11.54
2018-11-07T16:30:33.766Z,11.58
2018-11-07T16:33:02.939Z,11.32
2018-11-07T16:35:30.845Z,11.13
2018-11-07T16:37:58.896Z,11.24
2018-11-07T16:40:26.837Z,11.43
2018-11-07T16:42:56.721Z,11.58
2018-11-07T16:45:24.667Z,11.51
2018-11-07T16:47:52.987Z,11.36
2018-11-07T16:50:22.340Z,11.21
2018-11-07T16:52:51.914Z,11.12
2018-11-07T16:55:20.101Z,11.04
2018-11-07T16:57:51.687Z,10.95
2018-11-07T17:00:23.714Z,10.86
2018-11-07T17:02:51.765Z,10.95
2018-11-07T17:05:21.840Z,11.11
2018-11-07T17:07:49.880Z,11.00
2018-11-07T17:10:18.172Z,10.89
2018-11-07T17:12:46.914Z,10.68
2018-11-07T17:15:14.900Z,10.54
2018-11-07T17:17:43.097Z,10.49
2018-11-07T17:20:12.467Z,10.46
2018-11-07T17:22:40.679Z,10.51
2018-11-07T17:25:10.948Z,10.43
2018-11-07T17:27:39.189Z,10.31
2018-11-07T17:30:08.382Z,10.19
2018-11-07T17:32:36.333Z,10.11
2018-11-07T17:35:04.672Z,10.07
2018-11-07T17:37:32.558Z,10.01
2018-11-07T17:40:01.324Z,9.98
2018-11-07T17:42:29.246Z,10.25
2018-11-07T17:44:57.298Z,9.98
2018-11-07T17:47:25.190Z,10.13
2018-11-07T17:49:53.214Z,10.34
2018-11-07T17:52:21.119Z,10.49
2018-11-07T17:54:49.202Z,10.27
2018-11-07T17:57:17.809Z,10.15
2018-11-07T17:59:46.242Z,9.98
2018-11-07T18:02:15.695Z,10.06
2018-11-07T18:04:44.106Z,10.40
2018-11-07T18:07:13.184Z,10.10
2018-11-07T18:09:44.850Z,10.05
2018-11-07T18:12:12.831Z,9.99
2018-11-07T18:14:41.558Z,10.43
2018-11-07T18:17:10.376Z,10.55
2018-11-07T18:19:38.606Z,10.65
2018-11-07T18:22:07.426Z,10.55
2018-11-07T18:24:35.547Z,10.63
2018-11-07T18:27:03.623Z,10.67
2018-11-07T18:29:31.730Z,10.64
2018-11-07T18:31:59.682Z,10.05
2018-11-07T18:34:27.913Z,9.70
2018-11-07T18:36:55.854Z,9.69
2018-11-07T18:39:23.790Z,9.44
2018-11-07T18:41:51.837Z,9.27
2018-11-07T18:44:19.979Z,9.16
2018-11-07T18:46:47.879Z,9.03
2018-11-07T18:49:15.820Z,9.04
2018-11-07T18:51:45.016Z,9.05
2018-11-07T18:54:13.020Z,8.70
2018-11-07T18:56:41.070Z,8.84
2018-11-07T18:59:09.110Z,8.86
2018-11-07T19:01:37.239Z,8.70
2018-11-07T19:04:05.350Z,8.65
2018-11-07T19:06:34.518Z,8.65
2018-11-07T19:09:02.621Z,8.80
2018-11-07T19:11:30.474Z,8.79
2018-11-07T19:13:58.533Z,8.79
2018-11-07T19:16:26.549Z,8.71
2018-11-07T19:18:54.602Z,8.71
2018-11-07T19:21:22.550Z,8.70
2018-11-07T19:23:50.547Z,8.68
2018-11-07T19:26:18.540Z,8.67
2018-11-07T19:28:46.669Z,8.72
2018-11-07T19:31:14.824Z,8.65
2018-11-07T19:33:42.726Z,8.58
2018-11-07T19:36:10.745Z,8.61
2018-11-07T19:38:39.680Z,8.66
2018-11-07T19:41:14.356Z,8.73
2018-11-07T19:43:43.450Z,8.78
2018-11-07T19:46:12.094Z,8.82
2018-11-07T19:48:41.000Z,8.75
2018-11-07T19:51:09.166Z,8.92
2018-11-07T19:53:37.113Z,9.30
2018-11-07T19:56:05.434Z,9.17
2018-11-07T19:58:34.833Z,9.25
2018-11-07T20:01:02.905Z,9.38
2018-11-07T20:03:30.833Z,9.26
2018-11-07T20:05:58.844Z,9.05
2018-11-07T20:08:26.961Z,8.93
2018-11-07T20:10:54.951Z,8.78
2018-11-07T20:13:23.140Z,8.78
2018-11-07T20:15:51.067Z,8.69
2018-11-07T20:18:19.057Z,8.58
2018-11-07T20:20:47.053Z,8.55
2018-11-07T20:23:15.036Z,8.55
2018-11-07T20:25:42.986Z,8.93
2018-11-07T20:28:10.878Z,8.67
2018-11-07T20:30:39.333Z,9.41
2018-11-07T20:33:07.624Z,9.60
2018-11-07T20:35:35.797Z,9.59
2018-11-07T20:38:03.733Z,9.53
2018-11-07T20:40:31.786Z,9.55
2018-11-07T20:42:59.828Z,9.43
2018-11-07T20:45:27.826Z,9.56
2018-11-07T20:47:55.862Z,9.73
2018-11-07T20:50:27.352Z,9.61
2018-11-07T20:52:55.362Z,9.63
2018-11-07T20:55:23.342Z,9.67
2018-11-07T20:57:51.278Z,9.60
2018-11-07T21:00:21.513Z,9.37
2018-11-07T21:02:49.799Z,9.41
2018-11-07T21:05:17.765Z,9.11
2018-11-07T21:07:45.757Z,9.04
2018-11-07T21:10:16.346Z,9.16
2018-11-07T21:12:44.737Z,8.93
2018-11-07T21:15:13.795Z,9.01
2018-11-07T21:17:42.580Z,8.80
2018-11-07T21:20:10.565Z,8.95
2018-11-07T21:22:39.076Z,8.78
2018-11-07T21:25:07.227Z,8.65
2018-11-07T21:27:35.166Z,8.60
2018-11-07T21:30:03.614Z,8.57
2018-11-07T21:32:31.720Z,8.44
2018-11-07T21:34:59.654Z,8.32
2018-11-07T21:37:27.596Z,8.24
2018-11-07T21:39:55.598Z,8.16
2018-11-07T21:42:23.483Z,8.14
2018-11-07T21:44:51.518Z,8.12
2018-11-07T21:47:19.682Z,8.22
2018-11-07T21:49:47.937Z,7.94
2018-11-07T21:52:15.933Z,7.86
2018-11-07T21:54:43.908Z,7.76
2018-11-07T21:57:12.769Z,7.83
2018-11-07T21:59:40.787Z,7.76
2018-11-07T22:02:08.718Z,7.60
2018-11-07T22:04:36.580Z,7.55
2018-11-07T22:07:04.764Z,7.62
2018-11-07T22:09:32.673Z,7.49
2018-11-07T22:12:00.702Z,7.59
2018-11-07T22:14:28.713Z,7.64
2018-11-07T22:16:56.690Z,7.82
2018-11-07T22:19:24.641Z,7.75
2018-11-07T22:21:52.780Z,7.46
2018-11-07T22:24:20.693Z,7.45
2018-11-07T22:26:48.796Z,7.40
2018-11-07T22:29:17.429Z,7.42
2018-11-07T22:31:45.464Z,7.47
2018-11-07T22:34:13.698Z,7.37
2018-11-07T22:36:41.892Z,7.44
2018-11-07T22:39:12.247Z,7.57
2018-11-07T22:41:41.865Z,7.52
2018-11-07T22:44:10.390Z,7.68
2018-11-07T22:46:38.806Z,7.50
2018-11-07T22:49:06.797Z,7.49
2018-11-07T22:51:35.476Z,7.33
2018-11-07T22:54:04.202Z,7.34
2018-11-07T22:56:32.209Z,7.06
2018-11-07T22:59:00.224Z,7.04
2018-11-07T23:01:34.051Z,7.11
2018-11-07T23:04:02.035Z,7.03
2018-11-07T23:06:29.934Z,7.03
2018-11-07T23:08:57.995Z,7.04
2018-11-07T23:11:25.974Z,7.01
2018-11-07T23:13:54.068Z,7.01
2018-11-07T23:16:22.174Z,6.82
2018-11-07T23:18:50.262Z,6.98
2018-11-07T23:21:18.210Z,6.90
2018-11-07T23:23:46.151Z,6.97
2018-11-07T23:26:14.893Z,6.76
2018-11-07T23:28:42.858Z,6.86
2018-11-07T23:31:10.826Z,6.98
2018-11-07T23:33:38.798Z,6.96
2018-11-07T23:36:06.764Z,7.10
2018-11-07T23:38:34.777Z,7.12
2018-11-07T23:41:02.915Z,7.10
2018-11-07T23:43:30.868Z,7.25
2018-11-07T23:45:59.785Z,7.36
2018-11-07T23:48:27.746Z,7.30
2018-11-07T23:50:55.744Z,7.29
2018-11-07T23:53:23.714Z,7.08
2018-11-07T23:55:51.813Z,6.99
2018-11-07T23:58:19.959Z,6.99
